Time;durP1;ratioP1;P1;durP2;ratioP2;P2;SDS_P1;SDS_P2;PMS_P1;PMS_P2;Temp;Humidity;BMP_temperature;BMP_pressure;BME280_temperature;BME280_humidity;BME280_pressure;Samples;Min_cycle;Max_cycle;Signal;HPM_P1;HPM_P2
2023/06/29 00:00:25;;;;;;;5.50;3.87;;;;;24.20;100567.00;;;;2067331;28;20203;-68
2023/06/29 00:01:26;;;;;;;7.72;3.97;;;;;24.20;100537.00;;;;2054870;28;20218;-68
2023/06/29 00:02:29;;;;;;;6.20;3.97;;;;;24.20;100564.00;;;;2065260;28;20250;-68
2023/06/29 00:03:30;;;;;;;4.88;4.00;;;;;24.20;100564.00;;;;2066018;28;20269;-68
2023/06/29 00:04:32;;;;;;;7.32;3.78;;;;;24.20;100557.00;;;;2059624;28;20203;-68
2023/06/29 00:05:32;;;;;;;5.05;4.15;;;;;24.20;100564.00;;;;2060221;28;20596;-68
2023/06/29 00:06:36;;;;;;;5.70;3.77;;;;;24.20;100562.00;;;;2055192;28;20305;-68
2023/06/29 00:07:36;;;;;;;6.43;3.90;;;;;24.20;100554.00;;;;2066495;28;20226;-68
2023/06/29 00:08:37;;;;;;;5.40;3.63;;;;;24.20;100554.00;;;;2065202;28;20227;-68
2023/06/29 00:09:37;;;;;;;5.40;3.67;;;;;24.20;100565.00;;;;2062723;28;20309;-68
2023/06/29 00:10:38;;;;;;;5.37;4.17;;;;;24.20;100558.00;;;;2064407;28;20990;-68
2023/06/29 00:11:39;;;;;;;4.60;3.83;;;;;24.20;100554.00;;;;2045636;28;20225;-68
2023/06/29 00:12:40;;;;;;;5.00;3.97;;;;;24.20;100560.00;;;;2054881;28;20885;-68
2023/06/29 00:13:41;;;;;;;5.07;3.75;;;;;24.20;100555.00;;;;2049947;28;20212;-68
2023/06/29 00:14:41;;;;;;;6.33;3.97;;;;;24.20;100557.00;;;;2054742;28;20227;-68
2023/06/29 00:15:42;;;;;;;5.63;3.70;;;;;24.20;100559.00;;;;2067642;28;20485;-68
2023/06/29 00:16:43;;;;;;;8.18;4.13;;;;;24.20;100551.00;;;;2054256;28;20222;-68
2023/06/29 00:17:47;;;;;;;6.10;4.00;;;;;24.20;100555.00;;;;2056682;28;20219;-68
2023/06/29 00:18:49;;;;;;;4.85;3.60;;;;;24.20;100558.00;;;;2058365;28;20208;-68
2023/06/29 00:19:52;;;;;;;4.55;3.20;;;;;24.20;100556.00;;;;2063694;28;20230;-68
2023/06/29 00:20:52;;;;;;;4.38;3.60;;;;;24.20;100530.00;;;;2061565;28;20226;-68
2023/06/29 00:21:53;;;;;;;4.43;4.00;;;;;24.20;100562.00;;;;2056936;28;20219;-68
2023/06/29 00:22:53;;;;;;;6.20;3.90;;;;;24.20;100549.00;;;;2062912;28;20237;-68
2023/06/29 00:23:54;;;;;;;7.80;3.97;;;;;24.20;100567.00;;;;2062311;28;20224;-68
2023/06/29 00:24:56;;;;;;;4.93;3.70;;;;;24.20;100559.00;;;;2063520;28;20219;-67
2023/06/29 00:25:57;;;;;;;4.05;3.55;;;;;24.20;100563.00;;;;2065673;28;20214;-67
2023/06/29 00:26:57;;;;;;;5.03;3.50;;;;;24.20;100571.00;;;;2057344;28;20277;-67
2023/06/29 00:27:58;;;;;;;6.07;3.67;;;;;24.20;100559.00;;;;2061817;28;20215;-67
2023/06/29 00:28:58;;;;;;;7.47;4.30;;;;;24.20;100562.00;;;;2062060;28;20273;-67
2023/06/29 00:29:58;;;;;;;5.10;3.87;;;;;24.20;100557.00;;;;2063678;28;20648;-67
2023/06/29 00:30:59;;;;;;;5.70;3.60;;;;;24.20;100558.00;;;;2059836;28;20262;-67
2023/06/29 00:31:59;;;;;;;6.07;3.27;;;;;24.20;100550.00;;;;2044895;28;20224;-67
2023/06/29 00:32:59;;;;;;;4.43;3.50;;;;;24.20;100546.00;;;;2054517;28;20229;-67
2023/06/29 00:34:00;;;;;;;4.27;3.40;;;;;24.20;100551.00;;;;2056251;28;20204;-67
2023/06/29 00:35:00;;;;;;;4.70;3.20;;;;;24.20;100548.00;;;;2061948;28;20214;-67
2023/06/29 00:36:00;;;;;;;6.43;3.70;;;;;24.20;100546.00;;;;2063003;28;20289;-67
2023/06/29 00:37:01;;;;;;;6.27;4.00;;;;;24.20;100545.00;;;;2042951;28;20215;-67
2023/06/29 00:38:01;;;;;;;5.40;3.50;;;;;24.20;100543.00;;;;2050680;28;20246;-67
2023/06/29 00:39:01;;;;;;;4.13;3.70;;;;;24.20;100539.00;;;;2056733;28;20696;-67
2023/06/29 00:40:02;;;;;;;3.93;3.50;;;;;24.20;100539.00;;;;2055833;28;20219;-67
2023/06/29 00:41:03;;;;;;;4.50;3.40;;;;;24.20;100540.00;;;;2054789;28;20223;-67
2023/06/29 00:42:03;;;;;;;4.57;3.73;;;;;24.20;100539.00;;;;2058760;28;20525;-67
2023/06/29 00:43:04;;;;;;;5.60;3.83;;;;;24.10;100536.00;;;;2062045;28;20230;-67
2023/06/29 00:44:04;;;;;;;7.07;3.00;;;;;24.20;100544.00;;;;2063205;28;20643;-67
2023/06/29 00:45:05;;;;;;;4.70;3.60;;;;;24.20;100536.00;;;;2061325;28;20306;-67
2023/06/29 00:46:08;;;;;;;4.00;3.70;;;;;24.20;100537.00;;;;2063381;28;20444;-67
2023/06/29 00:47:08;;;;;;;4.75;3.50;;;;;24.10;100484.00;;;;2044967;28;20223;-67
2023/06/29 00:48:08;;;;;;;5.87;3.33;;;;;24.20;100537.00;;;;2042750;28;20233;-67
2023/06/29 00:49:09;;;;;;;4.30;3.67;;;;;24.10;100502.00;;;;2046196;29;20227;-68
2023/06/29 00:50:09;;;;;;;4.70;3.80;;;;;24.10;100525.00;;;;2044073;28;20228;-68
2023/06/29 00:51:10;;;;;;;4.10;3.40;;;;;24.20;100527.00;;;;2036945;28;20220;-68
2023/06/29 00:52:10;;;;;;;4.50;3.60;;;;;24.20;100526.00;;;;2049482;28;20238;-68
2023/06/29 00:53:10;;;;;;;5.03;3.67;;;;;24.20;100526.00;;;;2049806;28;20212;-68
2023/06/29 00:54:11;;;;;;;4.27;3.73;;;;;24.20;100530.00;;;;2054891;28;20249;-68
2023/06/29 00:55:11;;;;;;;4.20;3.60;;;;;24.20;100487.00;;;;2060559;28;20215;-68
2023/06/29 00:56:11;;;;;;;4.90;3.17;;;;;24.20;100505.00;;;;2054112;28;20257;-68
2023/06/29 00:57:12;;;;;;;4.53;3.90;;;;;24.20;100527.00;;;;2061777;28;20214;-68
2023/06/29 00:58:12;;;;;;;3.97;3.57;;;;;24.20;100528.00;;;;2059541;28;20327;-68
2023/06/29 00:59:13;;;;;;;6.10;3.50;;;;;24.20;100526.00;;;;2053885;28;20506;-68
2023/06/29 01:00:14;;;;;;;5.07;3.90;;;;;24.20;100523.00;;;;2063384;28;20301;-68
2023/06/29 01:01:14;;;;;;;6.80;4.23;;;;;24.20;100521.00;;;;2055270;28;20309;-68
2023/06/29 01:02:15;;;;;;;4.70;3.37;;;;;24.10;100523.00;;;;2065073;28;20265;-68
2023/06/29 01:03:15;;;;;;;4.07;3.27;;;;;24.20;100527.00;;;;2063015;28;20706;-68
2023/06/29 01:04:22;;;;;;;4.30;3.57;;;;;24.20;100522.00;;;;2066988;28;20211;-68
2023/06/29 01:05:22;;;;;;;3.97;3.60;;;;;24.20;100534.00;;;;2055707;28;20212;-68
2023/06/29 01:06:29;;;;;;;5.57;4.07;;;;;24.20;100530.00;;;;2045726;28;20463;-68
2023/06/29 01:07:41;;;;;;;7.60;3.42;;;;;24.10;100526.00;;;;2053458;28;20303;-68
2023/06/29 01:08:43;;;;;;;3.53;3.00;;;;;24.20;100522.00;;;;2049933;28;20236;-68
2023/06/29 01:09:44;;;;;;;3.55;3.25;;;;;24.20;100528.00;;;;2039486;28;20247;-68
2023/06/29 01:10:44;;;;;;;4.82;3.08;;;;;24.20;100522.00;;;;2036310;29;20232;-68
2023/06/29 01:11:45;;;;;;;4.03;3.23;;;;;24.20;100524.00;;;;2035736;28;20236;-68
2023/06/29 01:12:45;;;;;;;4.40;3.10;;;;;24.20;100520.00;;;;2048073;28;20216;-68
2023/06/29 01:13:46;;;;;;;4.67;3.90;;;;;24.10;100522.00;;;;2058910;28;20303;-68
2023/06/29 01:14:46;;;;;;;3.87;3.20;;;;;24.20;100526.00;;;;2054373;28;20215;-68
2023/06/29 01:15:46;;;;;;;3.47;3.17;;;;;24.20;100519.00;;;;2046589;28;20695;-68
2023/06/29 01:16:47;;;;;;;4.03;3.43;;;;;24.20;100521.00;;;;2035948;28;20223;-68
2023/06/29 01:17:48;;;;;;;5.37;3.70;;;;;24.20;100494.00;;;;2049101;28;20211;-68
2023/06/29 01:18:48;;;;;;;3.73;3.33;;;;;24.10;100527.00;;;;2045867;28;20227;-68
2023/06/29 01:19:49;;;;;;;6.80;3.73;;;;;24.10;100505.00;;;;2055904;28;20234;-68
2023/06/29 01:20:50;;;;;;;3.90;3.25;;;;;24.10;100522.00;;;;2063454;28;20270;-68
2023/06/29 01:22:09;;;;;;;4.13;3.73;;;;;24.20;100522.00;;;;2035568;28;20227;-68
2023/06/29 01:23:11;;;;;;;4.05;2.97;;;;;24.20;100524.00;;;;2042834;28;20228;-68
2023/06/29 01:24:11;;;;;;;3.58;3.28;;;;;24.10;100519.00;;;;2055558;28;20219;-68
2023/06/29 01:25:12;;;;;;;5.10;3.50;;;;;24.10;100523.00;;;;2057149;28;20337;-68
2023/06/29 01:26:12;;;;;;;3.65;3.35;;;;;24.10;100488.00;;;;2046388;28;20255;-68
2023/06/29 01:27:13;;;;;;;4.23;2.93;;;;;24.10;100517.00;;;;2057330;28;20290;-67
2023/06/29 01:28:14;;;;;;;5.33;3.40;;;;;24.20;100516.00;;;;2055295;28;20216;-67
2023/06/29 01:29:14;;;;;;;4.17;3.20;;;;;24.10;100519.00;;;;2063522;28;20215;-67
2023/06/29 01:30:14;;;;;;;3.20;2.90;;;;;24.20;100528.00;;;;2064265;28;20213;-67
2023/06/29 01:31:15;;;;;;;5.47;3.27;;;;;24.10;100520.00;;;;2051319;28;20235;-67
2023/06/29 01:32:15;;;;;;;5.33;3.40;;;;;24.20;100522.00;;;;2063128;28;20638;-67
2023/06/29 01:33:16;;;;;;;4.60;3.40;;;;;24.10;100521.00;;;;2063413;28;20637;-67
2023/06/29 01:34:16;;;;;;;4.00;3.10;;;;;24.10;100519.00;;;;2064306;28;20341;-67
2023/06/29 01:35:17;;;;;;;3.87;3.27;;;;;24.20;100521.00;;;;2056943;28;20701;-68
2023/06/29 01:36:20;;;;;;;4.60;3.20;;;;;24.10;100492.00;;;;2046060;28;20695;-68
2023/06/29 01:37:26;;;;;;;4.30;3.30;;;;;24.10;100483.00;;;;2053008;28;20219;-68
2023/06/29 01:38:28;;;;;;;3.77;3.47;;;;;24.20;100519.00;;;;2045044;28;20837;-68
2023/06/29 01:39:29;;;;;;;5.00;3.27;;;;;24.10;100509.00;;;;2039643;28;20987;-68
2023/06/29 01:40:29;;;;;;;3.47;3.17;;;;;24.10;100494.00;;;;2043283;28;20468;-68
2023/06/29 01:41:32;;;;;;;3.93;3.07;;;;;24.10;100514.00;;;;2042561;28;20231;-68
2023/06/29 01:42:33;;;;;;;3.85;3.45;;;;;24.20;100523.00;;;;2056076;28;20262;-68
2023/06/29 01:43:33;;;;;;;3.87;3.47;;;;;24.10;100513.00;;;;2055546;28;20227;-68
2023/06/29 01:44:33;;;;;;;4.90;3.07;;;;;24.10;100510.00;;;;2043849;28;20208;-68
2023/06/29 01:45:34;;;;;;;3.50;3.20;;;;;24.10;100520.00;;;;2046296;28;20249;-68
2023/06/29 01:46:34;;;;;;;3.40;3.10;;;;;24.10;100513.00;;;;2044390;28;20684;-68
2023/06/29 01:47:34;;;;;;;5.10;3.17;;;;;24.20;100509.00;;;;2036061;29;20216;-68
2023/06/29 01:48:35;;;;;;;4.00;2.97;;;;;24.10;100490.00;;;;2040071;29;20209;-68
2023/06/29 01:49:35;;;;;;;3.40;3.10;;;;;24.20;100505.00;;;;2055978;28;20214;-68
2023/06/29 01:50:35;;;;;;;3.83;3.43;;;;;24.10;100474.00;;;;2054810;28;20212;-68
2023/06/29 01:51:35;;;;;;;3.87;3.50;;;;;24.10;100485.00;;;;2035690;28;21164;-68
2023/06/29 01:52:36;;;;;;;6.57;3.37;;;;;24.20;100502.00;;;;2052359;28;20790;-68
2023/06/29 01:53:37;;;;;;;4.07;3.67;;;;;24.10;100497.00;;;;2056233;28;20672;-68
2023/06/29 01:54:37;;;;;;;3.93;3.53;;;;;24.10;100501.00;;;;2063248;28;20223;-68
2023/06/29 01:55:37;;;;;;;4.43;3.70;;;;;24.20;100505.00;;;;2058781;28;20216;-68
2023/06/29 01:56:38;;;;;;;4.43;3.23;;;;;24.10;100500.00;;;;2055673;28;20247;-68
2023/06/29 01:57:38;;;;;;;4.17;2.97;;;;;24.10;100496.00;;;;2057736;28;20275;-68
2023/06/29 01:58:38;;;;;;;5.00;3.33;;;;;24.10;100476.00;;;;2061799;28;20226;-68
2023/06/29 01:59:39;;;;;;;3.63;3.20;;;;;24.10;100486.00;;;;2061833;28;20229;-68
2023/06/29 02:00:39;;;;;;;4.10;3.20;;;;;24.20;100493.00;;;;2065400;28;20219;-68
2023/06/29 02:01:39;;;;;;;3.33;3.03;;;;;24.20;100492.00;;;;2056172;28;20308;-68
2023/06/29 02:02:40;;;;;;;3.83;3.40;;;;;24.20;100495.00;;;;2063068;28;20219;-68
2023/06/29 02:03:40;;;;;;;3.90;3.40;;;;;24.20;100492.00;;;;2064348;28;20234;-68
2023/06/29 02:04:40;;;;;;;3.57;3.27;;;;;24.20;100492.00;;;;2064946;28;20222;-68
2023/06/29 02:05:41;;;;;;;4.17;3.87;;;;;24.10;100494.00;;;;2062735;28;20940;-68
2023/06/29 02:06:41;;;;;;;4.67;3.17;;;;;24.10;100488.00;;;;2057003;28;20753;-68
2023/06/29 02:07:41;;;;;;;3.93;3.10;;;;;24.10;100442.00;;;;2071374;28;20222;-68
2023/06/29 02:08:42;;;;;;;4.87;3.40;;;;;24.10;100450.00;;;;2050021;28;20227;-68
2023/06/29 02:09:43;;;;;;;6.40;3.50;;;;;24.10;100487.00;;;;2039823;29;20312;-68
2023/06/29 02:10:43;;;;;;;3.53;3.20;;;;;24.10;100486.00;;;;2059271;28;20218;-68
2023/06/29 02:11:44;;;;;;;3.60;3.30;;;;;24.10;100486.00;;;;2053907;28;20229;-68
2023/06/29 02:12:44;;;;;;;5.43;3.43;;;;;24.10;100485.00;;;;2057403;28;20219;-68
2023/06/29 02:13:44;;;;;;;3.37;3.03;;;;;24.10;100477.00;;;;2057949;28;20280;-68
2023/06/29 02:14:45;;;;;;;4.63;3.90;;;;;24.10;100496.00;;;;2060276;28;20219;-68
2023/06/29 02:15:45;;;;;;;6.07;3.27;;;;;24.10;100492.00;;;;2067622;28;20219;-68
2023/06/29 02:16:46;;;;;;;4.20;3.27;;;;;24.10;100489.00;;;;2053358;28;20242;-68
2023/06/29 02:17:46;;;;;;;4.37;3.30;;;;;24.10;100493.00;;;;2057124;28;20222;-68
2023/06/29 02:18:47;;;;;;;5.17;3.43;;;;;24.10;100499.00;;;;2056339;28;20504;-69
2023/06/29 02:19:47;;;;;;;3.60;3.30;;;;;24.20;100499.00;;;;2050332;28;20585;-71
2023/06/29 02:20:47;;;;;;;4.00;2.97;;;;;24.10;100493.00;;;;2061619;28;20606;-69
2023/06/29 02:21:47;;;;;;;3.80;3.10;;;;;24.10;100490.00;;;;2045620;28;20813;-69
2023/06/29 02:22:48;;;;;;;4.60;3.30;;;;;24.20;100495.00;;;;2062672;28;21023;-69
2023/06/29 02:23:48;;;;;;;3.90;3.10;;;;;24.20;100492.00;;;;2066984;28;20576;-68
2023/06/29 02:24:49;;;;;;;5.10;3.40;;;;;24.30;100489.00;;;;2065240;28;20219;-68
2023/06/29 02:25:49;;;;;;;6.30;3.17;;;;;24.20;100486.00;;;;2063643;28;20215;-68
2023/06/29 02:26:49;;;;;;;6.20;3.07;;;;;24.20;100492.00;;;;2047071;28;20269;-68
2023/06/29 02:27:50;;;;;;;6.77;4.00;;;;;24.20;100491.00;;;;2055771;28;20219;-68
2023/06/29 02:28:50;;;;;;;3.47;3.00;;;;;24.20;100488.00;;;;2067914;28;20225;-68
2023/06/29 02:29:50;;;;;;;10.83;3.80;;;;;24.20;100484.00;;;;2065639;28;20221;-68
2023/06/29 02:30:51;;;;;;;4.20;3.03;;;;;24.20;100489.00;;;;2060173;28;20615;-68
2023/06/29 02:31:51;;;;;;;7.50;3.63;;;;;24.10;100486.00;;;;2045959;28;20814;-68
2023/06/29 02:32:51;;;;;;;4.07;3.27;;;;;24.20;100476.00;;;;2057603;28;20742;-68
2023/06/29 02:33:52;;;;;;;5.50;2.90;;;;;24.20;100488.00;;;;2063913;28;20215;-69
2023/06/29 02:34:52;;;;;;;6.83;3.87;;;;;24.20;100480.00;;;;2048377;28;20239;-69
2023/06/29 02:35:52;;;;;;;3.53;3.13;;;;;24.20;100473.00;;;;2051331;28;20220;-69
2023/06/29 02:36:53;;;;;;;5.93;3.57;;;;;24.30;100478.00;;;;2059126;28;20224;-69
2023/06/29 02:37:53;;;;;;;4.07;2.50;;;;;24.30;100476.00;;;;2068713;28;20298;-68
2023/06/29 02:38:53;;;;;;;5.23;3.47;;;;;24.30;100478.00;;;;2066122;28;20238;-69
2023/06/29 02:39:53;;;;;;;4.27;3.00;;;;;24.30;100480.00;;;;2063855;28;20237;-69
2023/06/29 02:40:54;;;;;;;3.93;3.10;;;;;24.30;100481.00;;;;2066341;28;20226;-69
2023/06/29 02:41:54;;;;;;;5.03;3.50;;;;;24.30;100481.00;;;;2048325;28;20227;-69
2023/06/29 02:42:55;;;;;;;4.67;3.20;;;;;24.30;100485.00;;;;2062393;28;20633;-69
2023/06/29 02:43:55;;;;;;;4.27;3.23;;;;;24.20;100484.00;;;;2056228;28;20308;-69
2023/06/29 02:44:55;;;;;;;3.50;3.13;;;;;24.30;100487.00;;;;2063411;28;20215;-69
2023/06/29 02:45:56;;;;;;;3.20;2.90;;;;;24.30;100479.00;;;;2064381;28;20229;-69
2023/06/29 02:46:56;;;;;;;5.60;2.90;;;;;24.20;100486.00;;;;2050369;28;20342;-69
2023/06/29 02:47:56;;;;;;;6.40;3.23;;;;;24.30;100479.00;;;;2058269;28;21015;-69
2023/06/29 02:48:57;;;;;;;6.37;3.37;;;;;24.20;100474.00;;;;2066490;28;20552;-69
2023/06/29 02:49:59;;;;;;;3.80;3.27;;;;;24.30;100480.00;;;;2068887;28;20218;-69
2023/06/29 02:50:59;;;;;;;3.37;3.03;;;;;24.20;100471.00;;;;2064950;28;20219;-69
2023/06/29 02:51:59;;;;;;;3.40;2.90;;;;;24.30;100479.00;;;;2044343;28;20471;-69
2023/06/29 02:53:00;;;;;;;3.63;3.00;;;;;24.30;100479.00;;;;2055341;28;21011;-69
2023/06/29 02:54:00;;;;;;;4.00;3.23;;;;;24.20;100444.00;;;;2057020;28;20215;-69
2023/06/29 02:55:00;;;;;;;3.50;3.17;;;;;24.30;100482.00;;;;2071717;28;20222;-69
2023/06/29 02:56:01;;;;;;;4.27;3.17;;;;;24.20;100476.00;;;;2066619;28;20241;-68
2023/06/29 02:57:01;;;;;;;4.40;3.30;;;;;24.30;100477.00;;;;2051430;28;20282;-68
2023/06/29 02:58:01;;;;;;;5.50;3.53;;;;;24.30;100470.00;;;;2055635;28;20223;-68
2023/06/29 02:59:01;;;;;;;5.50;3.77;;;;;24.00;100472.00;;;;2059918;28;20215;-68
2023/06/29 03:00:03;;;;;;;4.50;3.90;;;;;24.00;100471.00;;;;2064317;28;20219;-68
2023/06/29 03:01:04;;;;;;;5.55;3.60;;;;;24.00;100470.00;;;;2067801;28;20675;-68
2023/06/29 03:02:05;;;;;;;7.63;3.83;;;;;24.00;100473.00;;;;2057289;28;20262;-68
2023/06/29 03:03:07;;;;;;;4.73;3.47;;;;;24.10;100451.00;;;;2062738;28;20218;-68
2023/06/29 03:04:07;;;;;;;5.35;3.25;;;;;24.10;100471.00;;;;2060820;28;21460;-68
2023/06/29 03:05:08;;;;;;;5.40;4.03;;;;;24.10;100474.00;;;;2063242;28;20229;-68
2023/06/29 03:06:08;;;;;;;4.87;3.60;;;;;24.10;100476.00;;;;2069002;28;20214;-68
2023/06/29 03:07:09;;;;;;;6.20;3.53;;;;;24.10;100475.00;;;;2035380;28;20999;-68
2023/06/29 03:08:09;;;;;;;5.07;3.50;;;;;24.10;100473.00;;;;2055501;28;20627;-68
2023/06/29 03:09:09;;;;;;;6.53;3.93;;;;;24.10;100471.00;;;;2061631;28;20234;-68
2023/06/29 03:10:10;;;;;;;4.40;3.67;;;;;24.10;100472.00;;;;2061415;28;20221;-68
2023/06/29 03:11:10;;;;;;;4.50;3.10;;;;;24.10;100472.00;;;;2061547;28;20214;-68
2023/06/29 03:12:10;;;;;;;5.20;3.67;;;;;24.00;100471.00;;;;2061821;28;20632;-68
2023/06/29 03:13:11;;;;;;;5.13;3.60;;;;;24.10;100467.00;;;;2063472;28;20645;-68
2023/06/29 03:14:11;;;;;;;4.43;3.33;;;;;24.10;100468.00;;;;2062335;28;20221;-68
2023/06/29 03:15:12;;;;;;;5.93;4.00;;;;;24.10;100464.00;;;;2063571;28;20251;-68
2023/06/29 03:16:12;;;;;;;3.50;2.90;;;;;24.10;100466.00;;;;2060733;28;20214;-68
2023/06/29 03:17:14;;;;;;;4.47;3.30;;;;;24.10;100469.00;;;;2062669;28;20215;-68
2023/06/29 03:18:14;;;;;;;5.00;3.25;;;;;24.10;100474.00;;;;2063246;28;20457;-68
2023/06/29 03:19:14;;;;;;;4.00;3.07;;;;;24.10;100470.00;;;;2061213;28;20618;-68
2023/06/29 03:20:15;;;;;;;3.90;3.23;;;;;24.10;100468.00;;;;2058525;28;20607;-68
2023/06/29 03:21:19;;;;;;;4.30;3.50;;;;;24.10;100471.00;;;;2054632;28;20670;-68
2023/06/29 03:22:20;;;;;;;4.15;3.53;;;;;24.10;100471.00;;;;2064520;28;20223;-68
2023/06/29 03:23:20;;;;;;;5.10;3.20;;;;;24.10;100467.00;;;;2063321;28;20203;-68
2023/06/29 03:24:20;;;;;;;4.00;3.13;;;;;24.10;100462.00;;;;2063061;28;20207;-68
2023/06/29 03:25:21;;;;;;;6.23;3.60;;;;;24.10;100461.00;;;;2065191;28;20203;-68
2023/06/29 03:26:21;;;;;;;4.70;3.23;;;;;24.10;100463.00;;;;2053300;28;20742;-68
2023/06/29 03:27:21;;;;;;;4.10;3.40;;;;;24.10;100460.00;;;;2060538;28;20572;-68
2023/06/29 03:28:22;;;;;;;4.23;3.60;;;;;24.10;100462.00;;;;2057333;28;20709;-68
2023/06/29 03:29:22;;;;;;;7.77;3.83;;;;;24.10;100458.00;;;;2066930;28;20666;-68
2023/06/29 03:30:22;;;;;;;4.70;3.30;;;;;24.10;100458.00;;;;2066513;28;20273;-68
2023/06/29 03:31:22;;;;;;;3.17;2.87;;;;;24.10;100458.00;;;;2052750;28;20257;-68
2023/06/29 03:32:23;;;;;;;4.27;3.33;;;;;24.10;100466.00;;;;2063307;28;20211;-68
2023/06/29 03:33:23;;;;;;;3.47;3.17;;;;;24.20;100467.00;;;;2052821;28;20585;-68
2023/06/29 03:34:23;;;;;;;4.03;3.50;;;;;24.10;100460.00;;;;2051610;28;20278;-68
2023/06/29 03:35:24;;;;;;;4.83;4.10;;;;;24.10;100459.00;;;;2064072;28;20561;-68
2023/06/29 03:36:24;;;;;;;3.83;3.40;;;;;24.10;100456.00;;;;2053855;28;20577;-68
2023/06/29 03:37:24;;;;;;;3.63;2.60;;;;;24.10;100453.00;;;;2063874;28;20743;-68
2023/06/29 03:38:25;;;;;;;4.13;3.57;;;;;24.10;100453.00;;;;2061730;28;20679;-68
2023/06/29 03:39:25;;;;;;;7.17;3.30;;;;;24.10;100456.00;;;;2059020;28;20281;-68
2023/06/29 03:40:25;;;;;;;4.50;3.40;;;;;24.10;100453.00;;;;2066931;28;20238;-68
2023/06/29 03:41:26;;;;;;;3.40;3.03;;;;;24.10;100454.00;;;;2056800;28;20201;-68
2023/06/29 03:42:26;;;;;;;4.27;2.97;;;;;24.10;100452.00;;;;2068347;28;20203;-68
2023/06/29 03:43:26;;;;;;;4.63;3.73;;;;;24.10;100450.00;;;;2066249;28;20258;-68
2023/06/29 03:44:27;;;;;;;4.90;3.00;;;;;24.10;100453.00;;;;2065029;28;20211;-68
2023/06/29 03:45:27;;;;;;;4.40;3.23;;;;;24.10;100448.00;;;;2061091;28;20284;-68
2023/06/29 03:46:27;;;;;;;3.87;3.23;;;;;24.10;100449.00;;;;2051787;28;20207;-68
2023/06/29 03:47:28;;;;;;;4.30;3.10;;;;;24.20;100453.00;;;;2062904;28;20681;-68
2023/06/29 03:48:28;;;;;;;4.60;3.20;;;;;24.20;100447.00;;;;2067274;28;20872;-68
2023/06/29 03:49:28;;;;;;;4.87;3.00;;;;;24.20;100449.00;;;;2064995;28;20649;-68
2023/06/29 03:50:32;;;;;;;4.00;3.30;;;;;24.20;100448.00;;;;2058109;28;20255;-68
2023/06/29 03:51:32;;;;;;;4.65;3.50;;;;;24.10;100448.00;;;;2053979;28;20227;-67
2023/06/29 03:52:32;;;;;;;5.53;3.90;;;;;24.20;100447.00;;;;2060353;28;20226;-67
2023/06/29 03:53:33;;;;;;;4.53;3.50;;;;;24.10;100445.00;;;;2063429;28;20203;-68
2023/06/29 03:54:33;;;;;;;4.60;3.30;;;;;24.10;100453.00;;;;2063321;28;20221;-67
2023/06/29 03:55:33;;;;;;;3.33;3.00;;;;;24.10;100453.00;;;;2059204;28;20211;-67
2023/06/29 03:56:34;;;;;;;3.37;3.00;;;;;24.10;100448.00;;;;2055794;28;20231;-67
2023/06/29 03:57:34;;;;;;;3.90;3.00;;;;;24.10;100451.00;;;;2065067;28;20215;-67
2023/06/29 03:58:34;;;;;;;4.30;3.33;;;;;24.10;100452.00;;;;2067197;28;20622;-68
2023/06/29 03:59:35;;;;;;;4.33;3.33;;;;;24.10;100450.00;;;;2060857;28;20686;-68
2023/06/29 04:00:35;;;;;;;4.10;3.30;;;;;24.10;100447.00;;;;2064069;28;20686;-63
2023/06/29 04:01:35;;;;;;;3.63;3.33;;;;;24.10;100440.00;;;;2057165;28;20241;-63
2023/06/29 04:02:35;;;;;;;3.90;3.50;;;;;24.10;100439.00;;;;2066784;28;20211;-63
2023/06/29 04:03:36;;;;;;;3.90;3.50;;;;;24.10;100443.00;;;;2062403;28;20219;-63
2023/06/29 04:04:36;;;;;;;4.80;3.30;;;;;24.10;100444.00;;;;2063909;28;20234;-63
2023/06/29 04:05:36;;;;;;;4.30;3.03;;;;;24.10;100437.00;;;;2064149;28;20219;-64
2023/06/29 04:06:37;;;;;;;6.83;3.07;;;;;24.10;100414.00;;;;2056965;28;20341;-64
2023/06/29 04:07:37;;;;;;;3.53;3.13;;;;;24.10;100435.00;;;;2060743;28;20222;-64
2023/06/29 04:08:37;;;;;;;6.43;3.50;;;;;24.20;100440.00;;;;2063474;28;20935;-64
2023/06/29 04:09:38;;;;;;;4.20;3.70;;;;;24.20;100439.00;;;;2066505;28;20804;-63
2023/06/29 04:10:38;;;;;;;4.03;3.20;;;;;24.10;100415.00;;;;2064358;28;20230;-63
2023/06/29 04:11:38;;;;;;;3.83;3.43;;;;;24.10;100437.00;;;;2056201;28;20340;-63
2023/06/29 04:12:39;;;;;;;4.37;3.30;;;;;24.20;100438.00;;;;2062409;28;20650;-63
2023/06/29 04:13:39;;;;;;;3.43;3.13;;;;;24.10;100433.00;;;;2064649;28;20226;-63
2023/06/29 04:14:39;;;;;;;6.37;3.63;;;;;24.10;100429.00;;;;2064248;28;20238;-63
2023/06/29 04:15:40;;;;;;;3.80;3.50;;;;;24.20;100430.00;;;;2066818;28;20222;-63
2023/06/29 04:16:40;;;;;;;3.63;3.33;;;;;24.10;100408.00;;;;2057073;28;20239;-63
2023/06/29 04:17:41;;;;;;;5.30;3.47;;;;;24.10;100426.00;;;;2055761;28;20282;-63
2023/06/29 04:18:41;;;;;;;4.03;3.40;;;;;24.10;100429.00;;;;2060142;28;20310;-63
2023/06/29 04:19:41;;;;;;;3.77;3.23;;;;;24.10;100430.00;;;;2065331;28;20229;-63
2023/06/29 04:20:42;;;;;;;5.00;3.57;;;;;24.10;100424.00;;;;2063477;28;20227;-63
2023/06/29 04:21:42;;;;;;;4.10;3.70;;;;;24.10;100422.00;;;;2052871;28;20257;-63
2023/06/29 04:22:43;;;;;;;4.30;3.50;;;;;24.10;100429.00;;;;2058118;28;20224;-63
2023/06/29 04:23:45;;;;;;;6.07;4.70;;;;;24.10;100426.00;;;;2064199;28;20230;-63
2023/06/29 04:24:46;;;;;;;5.13;4.63;;;;;24.10;100422.00;;;;2056614;28;20764;-63
2023/06/29 04:25:46;;;;;;;7.23;5.53;;;;;24.10;100421.00;;;;2062388;28;20227;-63
2023/06/29 04:26:46;;;;;;;7.90;6.57;;;;;24.10;100423.00;;;;2051917;28;20219;-62
2023/06/29 04:27:47;;;;;;;7.40;6.70;;;;;24.10;100421.00;;;;2063446;28;20225;-62
2023/06/29 04:28:47;;;;;;;8.43;7.20;;;;;24.10;100426.00;;;;2065391;28;20215;-62
2023/06/29 04:29:47;;;;;;;7.83;6.80;;;;;24.10;100434.00;;;;2058488;28;20254;-62
2023/06/29 04:30:48;;;;;;;9.90;8.00;;;;;24.10;100433.00;;;;2061197;28;20211;-62
2023/06/29 04:31:48;;;;;;;10.93;8.80;;;;;24.10;100431.00;;;;2056160;28;20222;-62
2023/06/29 04:32:48;;;;;;;9.97;8.83;;;;;24.10;100429.00;;;;2059490;28;20223;-63
2023/06/29 04:33:49;;;;;;;9.13;7.87;;;;;24.10;100432.00;;;;2062274;28;20261;-63
2023/06/29 04:34:49;;;;;;;9.63;7.67;;;;;24.10;100426.00;;;;2061329;28;20223;-63
2023/06/29 04:35:50;;;;;;;10.97;9.63;;;;;24.10;100429.00;;;;2064254;28;20237;-63
2023/06/29 04:36:51;;;;;;;8.43;7.53;;;;;24.10;100431.00;;;;2050773;28;20241;-64
2023/06/29 04:37:51;;;;;;;10.65;8.23;;;;;24.10;100431.00;;;;2057912;28;20222;-64
2023/06/29 04:38:51;;;;;;;10.53;9.00;;;;;24.10;100426.00;;;;2064023;28;20207;-64
2023/06/29 04:39:52;;;;;;;10.73;8.50;;;;;24.10;100421.00;;;;2057538;28;20386;-63
2023/06/29 04:41:04;;;;;;;12.67;9.80;;;;;24.10;100420.00;;;;2054420;28;20219;-63
2023/06/29 04:42:10;;;;;;;11.63;9.52;;;;;24.10;100419.00;;;;2053393;28;20223;-63
2023/06/29 04:43:12;;;;;;;11.10;9.90;;;;;24.10;100425.00;;;;2064127;28;20224;-63
2023/06/29 04:44:12;;;;;;;11.85;10.27;;;;;24.10;100421.00;;;;2061995;28;20222;-63
2023/06/29 04:45:17;;;;;;;12.57;11.30;;;;;24.10;100405.00;;;;2059022;28;20207;-63
2023/06/29 04:46:18;;;;;;;12.10;10.85;;;;;24.10;100418.00;;;;2044242;28;20660;-63
2023/06/29 04:47:18;;;;;;;12.13;9.80;;;;;24.10;100425.00;;;;2063346;28;20219;-63
2023/06/29 04:48:19;;;;;;;12.10;10.73;;;;;24.10;100421.00;;;;2061663;28;20754;-63
2023/06/29 04:49:19;;;;;;;16.02;13.00;;;;;24.10;100417.00;;;;2063621;28;20265;-63
2023/06/29 04:50:25;;;;;;;12.23;10.87;;;;;24.10;100421.00;;;;2068331;28;20260;-63
2023/06/29 04:51:26;;;;;;;14.00;11.25;;;;;24.10;100421.00;;;;2054636;28;20211;-63
2023/06/29 04:52:26;;;;;;;14.17;10.80;;;;;24.10;100424.00;;;;2063054;28;20214;-63
2023/06/29 04:53:28;;;;;;;12.93;11.53;;;;;24.10;100421.00;;;;2059801;28;20985;-63
2023/06/29 04:54:28;;;;;;;12.27;10.27;;;;;24.10;100420.00;;;;2058696;28;20286;-64
2023/06/29 04:55:29;;;;;;;13.37;11.10;;;;;24.10;100418.00;;;;2061735;28;20733;-64
2023/06/29 04:56:29;;;;;;;13.80;11.60;;;;;24.10;100413.00;;;;2056563;28;20695;-64
2023/06/29 04:57:30;;;;;;;10.37;9.27;;;;;24.20;100420.00;;;;2062517;28;20205;-64
2023/06/29 04:58:31;;;;;;;10.32;8.95;;;;;24.20;100412.00;;;;2062541;28;20207;-64
2023/06/29 04:59:31;;;;;;;13.03;11.20;;;;;24.20;100417.00;;;;2056876;28;20203;-64